sensor_id;sensor_type;location;lat;lon;timestamp;temperature;humidity
15765;DHT22;7983;50.744;7.086;2022-10-04T00:14:44;12.00;99.90
15765;DHT22;7983;50.744;7.086;2022-10-04T00:17:12;12.00;99.90
15765;DHT22;7983;50.744;7.086;2022-10-04T00:19:47;12.00;99.90
15765;DHT22;7983;50.744;7.086;2022-10-04T00:22:34;11.90;99.90
15765;DHT22;7983;50.744;7.086;2022-10-04T00:27:38;12.00;99.90
15765;DHT22;7983;50.744;7.086;2022-10-04T00:40:39;11.90;99.90
15765;DHT22;7983;50.744;7.086;2022-10-04T00:43:16;11.90;99.90
15765;DHT22;7983;50.744;7.086;2022-10-04T00:45:52;11.90;99.90
15765;DHT22;7983;50.744;7.086;2022-10-04T00:48:52;11.90;99.90
15765;DHT22;7983;50.744;7.086;2022-10-04T00:51:30;11.90;99.90
15765;DHT22;7983;50.744;7.086;2022-10-04T00:54:08;12.00;99.90
15765;DHT22;7983;50.744;7.086;2022-10-04T00:59:51;12.00;99.90
15765;DHT22;7983;50.744;7.086;2022-10-04T01:02:20;12.00;99.90
15765;DHT22;7983;50.744;7.086;2022-10-04T01:05:06;12.00;99.90
15765;DHT22;7983;50.744;7.086;2022-10-04T01:15:42;12.00;99.90
15765;DHT22;7983;50.744;7.086;2022-10-04T01:31:46;12.00;99.90
15765;DHT22;7983;50.744;7.086;2022-10-04T01:34:16;12.00;99.90
15765;DHT22;7983;50.744;7.086;2022-10-04T01:36:42;12.00;99.90
15765;DHT22;7983;50.744;7.086;2022-10-04T01:39:12;12.00;99.90
15765;DHT22;7983;50.744;7.086;2022-10-04T01:41:46;12.10;99.90
15765;DHT22;7983;50.744;7.086;2022-10-04T01:44:38;12.00;99.90
15765;DHT22;7983;50.744;7.086;2022-10-04T01:47:13;12.00;99.90
15765;DHT22;7983;50.744;7.086;2022-10-04T01:49:41;12.00;99.90
15765;DHT22;7983;50.744;7.086;2022-10-04T01:52:25;12.00;99.90
15765;DHT22;7983;50.744;7.086;2022-10-04T01:55:08;12.00;99.90
15765;DHT22;7983;50.744;7.086;2022-10-04T01:57:50;12.00;99.90
15765;DHT22;7983;50.744;7.086;2022-10-04T02:00:19;12.00;99.90
15765;DHT22;7983;50.744;7.086;2022-10-04T02:06:09;12.00;99.90
15765;DHT22;7983;50.744;7.086;2022-10-04T02:08:17;12.00;99.90
15765;DHT22;7983;50.744;7.086;2022-10-04T02:10:49;12.00;99.90
15765;DHT22;7983;50.744;7.086;2022-10-04T02:13:18;12.00;99.90
15765;DHT22;7983;50.744;7.086;2022-10-04T02:15:45;12.00;99.90
15765;DHT22;7983;50.744;7.086;2022-10-04T02:18:16;12.00;99.90
15765;DHT22;7983;50.744;7.086;2022-10-04T02:20:46;12.00;99.90
15765;DHT22;7983;50.744;7.086;2022-10-04T02:23:18;12.00;99.90
15765;DHT22;7983;50.744;7.086;2022-10-04T02:25:47;12.00;99.90
15765;DHT22;7983;50.744;7.086;2022-10-04T02:28:14;12.00;99.90
15765;DHT22;7983;50.744;7.086;2022-10-04T02:30:46;11.90;99.90
15765;DHT22;7983;50.744;7.086;2022-10-04T02:33:32;11.90;99.90
15765;DHT22;7983;50.744;7.086;2022-10-04T02:36:02;11.90;99.90
15765;DHT22;7983;50.744;7.086;2022-10-04T02:41:22;11.80;99.90
15765;DHT22;7983;50.744;7.086;2022-10-04T02:44:03;11.80;99.90
15765;DHT22;7983;50.744;7.086;2022-10-04T02:47:42;11.80;99.90
15765;DHT22;7983;50.744;7.086;2022-10-04T02:49:48;11.80;99.90
15765;DHT22;7983;50.744;7.086;2022-10-04T02:52:37;11.70;99.90
15765;DHT22;7983;50.744;7.086;2022-10-04T02:57:43;11.70;99.90
15765;DHT22;7983;50.744;7.086;2022-10-04T03:06:09;11.60;99.90
15765;DHT22;7983;50.744;7.086;2022-10-04T03:08:54;11.50;99.90
15765;DHT22;7983;50.744;7.086;2022-10-04T03:11:26;11.50;99.90
15765;DHT22;7983;50.744;7.086;2022-10-04T03:14:00;11.50;99.90
15765;DHT22;7983;50.744;7.086;2022-10-04T03:16:35;11.40;99.90
15765;DHT22;7983;50.744;7.086;2022-10-04T03:19:02;11.40;99.90
15765;DHT22;7983;50.744;7.086;2022-10-04T03:21:30;11.30;99.90
15765;DHT22;7983;50.744;7.086;2022-10-04T03:23:57;11.40;99.90
15765;DHT22;7983;50.744;7.086;2022-10-04T03:29:06;11.30;99.90
15765;DHT22;7983;50.744;7.086;2022-10-04T03:31:38;11.30;99.90
15765;DHT22;7983;50.744;7.086;2022-10-04T03:34:17;11.30;99.90
15765;DHT22;7983;50.744;7.086;2022-10-04T03:36:45;11.30;99.90
15765;DHT22;7983;50.744;7.086;2022-10-04T03:39:11;11.30;99.90
15765;DHT22;7983;50.744;7.086;2022-10-04T03:41:41;11.20;99.90
15765;DHT22;7983;50.744;7.086;2022-10-04T03:44:14;11.20;99.90
15765;DHT22;7983;50.744;7.086;2022-10-04T03:46:42;11.20;99.90
15765;DHT22;7983;50.744;7.086;2022-10-04T03:49:16;11.20;99.90
15765;DHT22;7983;50.744;7.086;2022-10-04T03:51:48;11.10;99.90
15765;DHT22;7983;50.744;7.086;2022-10-04T03:54:21;11.10;99.90
15765;DHT22;7983;50.744;7.086;2022-10-04T03:56:52;11.10;99.90
15765;DHT22;7983;50.744;7.086;2022-10-04T03:59:23;11.10;99.90
15765;DHT22;7983;50.744;7.086;2022-10-04T04:07:40;11.10;99.90
15765;DHT22;7983;50.744;7.086;2022-10-04T04:10:20;11.00;99.90
15765;DHT22;7983;50.744;7.086;2022-10-04T04:13:12;11.00;99.90
15765;DHT22;7983;50.744;7.086;2022-10-04T04:15:42;11.00;99.90
15765;DHT22;7983;50.744;7.086;2022-10-04T04:18:19;11.00;99.90
15765;DHT22;7983;50.744;7.086;2022-10-04T04:20:49;10.90;99.90
15765;DHT22;7983;50.744;7.086;2022-10-04T04:23:35;10.90;99.90
15765;DHT22;7983;50.744;7.086;2022-10-04T04:28:55;10.90;99.90
15765;DHT22;7983;50.744;7.086;2022-10-04T04:31:44;10.90;99.90
15765;DHT22;7983;50.744;7.086;2022-10-04T04:34:23;10.90;99.90
15765;DHT22;7983;50.744;7.086;2022-10-04T04:37:00;10.90;99.90
15765;DHT22;7983;50.744;7.086;2022-10-04T04:39:29;10.80;99.90
15765;DHT22;7983;50.744;7.086;2022-10-04T04:47:34;10.80;99.90
15765;DHT22;7983;50.744;7.086;2022-10-04T04:50:30;10.80;99.90
15765;DHT22;7983;50.744;7.086;2022-10-04T04:53:16;10.80;99.90
15765;DHT22;7983;50.744;7.086;2022-10-04T04:55:48;10.80;99.90
15765;DHT22;7983;50.744;7.086;2022-10-04T04:58:21;10.80;99.90
15765;DHT22;7983;50.744;7.086;2022-10-04T05:01:46;10.80;99.90
15765;DHT22;7983;50.744;7.086;2022-10-04T05:06:32;10.80;99.90
15765;DHT22;7983;50.744;7.086;2022-10-04T05:09:03;10.80;99.90
15765;DHT22;7983;50.744;7.086;2022-10-04T05:11:37;10.70;99.90
15765;DHT22;7983;50.744;7.086;2022-10-04T05:14:07;10.70;99.90
15765;DHT22;7983;50.744;7.086;2022-10-04T05:16:44;10.70;99.90
15765;DHT22;7983;50.744;7.086;2022-10-04T05:19:29;10.70;99.90
15765;DHT22;7983;50.744;7.086;2022-10-04T05:22:02;10.60;99.90
15765;DHT22;7983;50.744;7.086;2022-10-04T05:24:37;10.70;99.90
15765;DHT22;7983;50.744;7.086;2022-10-04T05:27:12;10.60;99.90
15765;DHT22;7983;50.744;7.086;2022-10-04T05:29:54;10.60;99.90
15765;DHT22;7983;50.744;7.086;2022-10-04T05:41:12;10.70;99.90
15765;DHT22;7983;50.744;7.086;2022-10-04T05:43:52;10.60;99.90
15765;DHT22;7983;50.744;7.086;2022-10-04T05:46:24;10.70;99.90
15765;DHT22;7983;50.744;7.086;2022-10-04T05:51:34;10.70;99.90
15765;DHT22;7983;50.744;7.086;2022-10-04T05:54:03;10.70;99.90
15765;DHT22;7983;50.744;7.086;2022-10-04T06:07:36;10.80;99.90
15765;DHT22;7983;50.744;7.086;2022-10-04T06:10:16;10.80;99.90
15765;DHT22;7983;50.744;7.086;2022-10-04T06:21:15;10.90;99.90
15765;DHT22;7983;50.744;7.086;2022-10-04T06:26:24;11.00;99.90
15765;DHT22;7983;50.744;7.086;2022-10-04T06:28:57;11.00;99.90
15765;DHT22;7983;50.744;7.086;2022-10-04T06:48:21;11.00;99.90
15765;DHT22;7983;50.744;7.086;2022-10-04T07:02:03;11.10;99.90
15765;DHT22;7983;50.744;7.086;2022-10-04T07:04:41;11.10;99.90
15765;DHT22;7983;50.744;7.086;2022-10-04T07:07:15;11.10;99.90
15765;DHT22;7983;50.744;7.086;2022-10-04T07:09:59;11.10;99.90
15765;DHT22;7983;50.744;7.086;2022-10-04T07:12:26;11.10;99.90
15765;DHT22;7983;50.744;7.086;2022-10-04T07:14:56;11.10;99.90
15765;DHT22;7983;50.744;7.086;2022-10-04T07:17:36;11.10;99.90
15765;DHT22;7983;50.744;7.086;2022-10-04T07:20:05;11.10;99.90
15765;DHT22;7983;50.744;7.086;2022-10-04T07:22:40;11.20;99.90
15765;DHT22;7983;50.744;7.086;2022-10-04T07:25:20;11.30;99.90
15765;DHT22;7983;50.744;7.086;2022-10-04T07:27:52;11.30;99.90
15765;DHT22;7983;50.744;7.086;2022-10-04T07:30:59;11.40;99.90
15765;DHT22;7983;50.744;7.086;2022-10-04T07:33:33;11.40;99.90
15765;DHT22;7983;50.744;7.086;2022-10-04T07:36:28;11.50;99.90
15765;DHT22;7983;50.744;7.086;2022-10-04T07:39:00;11.50;99.90
15765;DHT22;7983;50.744;7.086;2022-10-04T07:41:33;11.60;99.90
15765;DHT22;7983;50.744;7.086;2022-10-04T07:46:47;11.80;99.90
15765;DHT22;7983;50.744;7.086;2022-10-04T07:49:16;11.80;99.90
15765;DHT22;7983;50.744;7.086;2022-10-04T07:54:39;12.00;99.90
15765;DHT22;7983;50.744;7.086;2022-10-04T07:58:01;12.10;99.90
15765;DHT22;7983;50.744;7.086;2022-10-04T08:00:30;12.20;99.90
15765;DHT22;7983;50.744;7.086;2022-10-04T08:11:36;12.50;99.90
15765;DHT22;7983;50.744;7.086;2022-10-04T08:16:49;12.60;99.90
15765;DHT22;7983;50.744;7.086;2022-10-04T08:22:10;12.80;99.90
15765;DHT22;7983;50.744;7.086;2022-10-04T08:27:57;12.90;99.90
15765;DHT22;7983;50.744;7.086;2022-10-04T08:33:55;13.10;99.90
15765;DHT22;7983;50.744;7.086;2022-10-04T08:36:45;13.10;99.90
15765;DHT22;7983;50.744;7.086;2022-10-04T08:53:52;13.50;99.90
15765;DHT22;7983;50.744;7.086;2022-10-04T09:30:01;16.50;99.90
15765;DHT22;7983;50.744;7.086;2022-10-04T09:41:05;18.80;99.90
15765;DHT22;7983;50.744;7.086;2022-10-04T09:44:08;19.20;99.90
15765;DHT22;7983;50.744;7.086;2022-10-04T09:49:50;19.80;99.90
15765;DHT22;7983;50.744;7.086;2022-10-04T09:58:05;20.80;99.90
15765;DHT22;7983;50.744;7.086;2022-10-04T10:25:20;22.50;99.90
15765;DHT22;7983;50.744;7.086;2022-10-04T10:42:13;22.60;99.90
15765;DHT22;7983;50.744;7.086;2022-10-04T10:47:59;22.70;99.90
15765;DHT22;7983;50.744;7.086;2022-10-04T10:57:21;22.70;99.90
15765;DHT22;7983;50.744;7.086;2022-10-04T11:14:38;22.80;99.90
15765;DHT22;7983;50.744;7.086;2022-10-04T11:17:16;22.70;99.90
15765;DHT22;7983;50.744;7.086;2022-10-04T11:20:14;22.60;99.90
15765;DHT22;7983;50.744;7.086;2022-10-04T12:10:11;23.40;99.90
15765;DHT22;7983;50.744;7.086;2022-10-04T12:15:51;23.60;99.90
15765;DHT22;7983;50.744;7.086;2022-10-04T12:24:07;23.60;99.90
15765;DHT22;7983;50.744;7.086;2022-10-04T12:32:33;23.70;99.90
15765;DHT22;7983;50.744;7.086;2022-10-04T12:38:22;23.90;99.90
15765;DHT22;7983;50.744;7.086;2022-10-04T12:43:39;24.00;99.90
15765;DHT22;7983;50.744;7.086;2022-10-04T12:46:31;24.00;99.90
15765;DHT22;7983;50.744;7.086;2022-10-04T13:19:34;24.40;99.90
15765;DHT22;7983;50.744;7.086;2022-10-04T13:27:47;24.30;99.90
15765;DHT22;7983;50.744;7.086;2022-10-04T13:30:35;24.30;99.90
15765;DHT22;7983;50.744;7.086;2022-10-04T13:33:32;24.30;99.90
15765;DHT22;7983;50.744;7.086;2022-10-04T13:36:27;24.30;99.90
15765;DHT22;7983;50.744;7.086;2022-10-04T14:04:21;24.40;99.90
15765;DHT22;7983;50.744;7.086;2022-10-04T14:23:33;24.90;99.90
15765;DHT22;7983;50.744;7.086;2022-10-04T14:34:24;24.70;99.90
15765;DHT22;7983;50.744;7.086;2022-10-04T14:37:16;24.70;99.90
15765;DHT22;7983;50.744;7.086;2022-10-04T15:18:26;24.50;99.90
15765;DHT22;7983;50.744;7.086;2022-10-04T15:23:53;24.40;99.90
15765;DHT22;7983;50.744;7.086;2022-10-04T15:42:37;23.70;99.90
15765;DHT22;7983;50.744;7.086;2022-10-04T15:50:59;23.40;99.90
15765;DHT22;7983;50.744;7.086;2022-10-04T16:02:09;22.90;99.90
15765;DHT22;7983;50.744;7.086;2022-10-04T16:04:46;22.80;99.90
15765;DHT22;7983;50.744;7.086;2022-10-04T16:07:36;22.70;99.90
15765;DHT22;7983;50.744;7.086;2022-10-04T16:10:29;22.60;99.90
15765;DHT22;7983;50.744;7.086;2022-10-04T16:15:44;22.50;99.90
15765;DHT22;7983;50.744;7.086;2022-10-04T16:18:37;22.40;99.90
15765;DHT22;7983;50.744;7.086;2022-10-04T16:32:24;22.20;99.90
15765;DHT22;7983;50.744;7.086;2022-10-04T16:35:01;22.10;99.90
15765;DHT22;7983;50.744;7.086;2022-10-04T16:37:40;22.00;99.90
15765;DHT22;7983;50.744;7.086;2022-10-04T16:46:18;21.70;99.90
15765;DHT22;7983;50.744;7.086;2022-10-04T17:10:31;20.70;99.90
15765;DHT22;7983;50.744;7.086;2022-10-04T17:24:27;20.20;99.90
15765;DHT22;7983;50.744;7.086;2022-10-04T17:33:31;20.00;99.90
15765;DHT22;7983;50.744;7.086;2022-10-04T17:36:21;19.90;99.90
15765;DHT22;7983;50.744;7.086;2022-10-04T17:44:55;19.70;99.90
15765;DHT22;7983;50.744;7.086;2022-10-04T17:47:40;19.60;99.90
15765;DHT22;7983;50.744;7.086;2022-10-04T17:53:27;19.50;99.90
15765;DHT22;7983;50.744;7.086;2022-10-04T17:56:14;19.40;99.90
15765;DHT22;7983;50.744;7.086;2022-10-04T17:58:53;19.40;99.90
15765;DHT22;7983;50.744;7.086;2022-10-04T18:01:31;19.30;99.90
15765;DHT22;7983;50.744;7.086;2022-10-04T18:04:10;19.20;99.90
15765;DHT22;7983;50.744;7.086;2022-10-04T18:09:31;19.10;99.90
15765;DHT22;7983;50.744;7.086;2022-10-04T18:14:46;19.00;99.90
15765;DHT22;7983;50.744;7.086;2022-10-04T18:17:40;19.00;99.90
15765;DHT22;7983;50.744;7.086;2022-10-04T18:23:00;18.90;99.90
15765;DHT22;7983;50.744;7.086;2022-10-04T18:25:29;18.80;99.90
15765;DHT22;7983;50.744;7.086;2022-10-04T18:33:24;18.60;99.90
15765;DHT22;7983;50.744;7.086;2022-10-04T18:38:28;18.50;99.90
15765;DHT22;7983;50.744;7.086;2022-10-04T18:40:54;18.40;99.90
15765;DHT22;7983;50.744;7.086;2022-10-04T18:46:14;18.30;99.90
15765;DHT22;7983;50.744;7.086;2022-10-04T18:51:38;18.10;99.90
15765;DHT22;7983;50.744;7.086;2022-10-04T19:00:10;17.80;99.90
15765;DHT22;7983;50.744;7.086;2022-10-04T19:05:53;17.60;99.90
15765;DHT22;7983;50.744;7.086;2022-10-04T19:08:44;17.50;99.90
15765;DHT22;7983;50.744;7.086;2022-10-04T19:11:22;17.50;99.90
15765;DHT22;7983;50.744;7.086;2022-10-04T19:20:00;17.40;99.90
15765;DHT22;7983;50.744;7.086;2022-10-04T19:23:10;17.40;99.90
15765;DHT22;7983;50.744;7.086;2022-10-04T19:25:32;17.30;99.90
15765;DHT22;7983;50.744;7.086;2022-10-04T19:30:46;17.30;99.90
15765;DHT22;7983;50.744;7.086;2022-10-04T19:42:00;17.10;99.90
15765;DHT22;7983;50.744;7.086;2022-10-04T19:50:17;17.10;99.90
15765;DHT22;7983;50.744;7.086;2022-10-04T19:55:39;17.10;99.90
15765;DHT22;7983;50.744;7.086;2022-10-04T19:58:35;17.00;99.90
15765;DHT22;7983;50.744;7.086;2022-10-04T20:01:16;17.00;99.90
15765;DHT22;7983;50.744;7.086;2022-10-04T20:03:45;16.90;99.90
15765;DHT22;7983;50.744;7.086;2022-10-04T20:06:19;16.90;99.90
15765;DHT22;7983;50.744;7.086;2022-10-04T20:11:58;16.90;99.90
15765;DHT22;7983;50.744;7.086;2022-10-04T20:19:35;16.70;99.90
15765;DHT22;7983;50.744;7.086;2022-10-04T20:34:58;16.30;99.90
15765;DHT22;7983;50.744;7.086;2022-10-04T20:45:47;16.10;99.90
15765;DHT22;7983;50.744;7.086;2022-10-04T20:48:19;16.00;99.90
15765;DHT22;7983;50.744;7.086;2022-10-04T20:50:48;15.90;99.90
15765;DHT22;7983;50.744;7.086;2022-10-04T20:55:43;15.90;99.90
15765;DHT22;7983;50.744;7.086;2022-10-04T21:00:59;15.80;99.90
15765;DHT22;7983;50.744;7.086;2022-10-04T21:03:26;15.80;99.90
15765;DHT22;7983;50.744;7.086;2022-10-04T21:06:01;15.80;99.90
15765;DHT22;7983;50.744;7.086;2022-10-04T21:08:30;15.70;99.90
15765;DHT22;7983;50.744;7.086;2022-10-04T21:11:19;15.70;99.90
15765;DHT22;7983;50.744;7.086;2022-10-04T21:13:56;15.70;99.90
15765;DHT22;7983;50.744;7.086;2022-10-04T21:22:33;15.50;99.90
15765;DHT22;7983;50.744;7.086;2022-10-04T21:27:33;15.40;99.90
15765;DHT22;7983;50.744;7.086;2022-10-04T21:30:11;15.30;99.90
15765;DHT22;7983;50.744;7.086;2022-10-04T21:32:37;15.30;99.90
15765;DHT22;7983;50.744;7.086;2022-10-04T21:35:06;15.20;99.90
15765;DHT22;7983;50.744;7.086;2022-10-04T21:37:32;15.20;99.90
15765;DHT22;7983;50.744;7.086;2022-10-04T21:39:58;15.10;99.90
15765;DHT22;7983;50.744;7.086;2022-10-04T21:42:24;15.10;99.90
15765;DHT22;7983;50.744;7.086;2022-10-04T21:44:50;15.00;99.90
15765;DHT22;7983;50.744;7.086;2022-10-04T21:47:15;14.90;99.90
15765;DHT22;7983;50.744;7.086;2022-10-04T21:49:45;14.90;99.90
15765;DHT22;7983;50.744;7.086;2022-10-04T21:52:13;14.90;99.90
15765;DHT22;7983;50.744;7.086;2022-10-04T21:54:47;14.80;99.90
15765;DHT22;7983;50.744;7.086;2022-10-04T21:57:15;14.80;99.90
15765;DHT22;7983;50.744;7.086;2022-10-04T21:59:40;14.70;99.90
15765;DHT22;7983;50.744;7.086;2022-10-04T22:02:06;14.70;99.90
15765;DHT22;7983;50.744;7.086;2022-10-04T22:04:32;14.60;99.90
15765;DHT22;7983;50.744;7.086;2022-10-04T22:06:57;14.60;99.90
15765;DHT22;7983;50.744;7.086;2022-10-04T22:09:23;14.60;99.90
15765;DHT22;7983;50.744;7.086;2022-10-04T22:11:48;14.60;99.90
15765;DHT22;7983;50.744;7.086;2022-10-04T22:14:17;14.50;99.90
15765;DHT22;7983;50.744;7.086;2022-10-04T22:16:42;14.50;99.90
15765;DHT22;7983;50.744;7.086;2022-10-04T22:19:08;14.50;99.90
15765;DHT22;7983;50.744;7.086;2022-10-04T22:21:33;14.50;99.90
15765;DHT22;7983;50.744;7.086;2022-10-04T22:24:02;14.50;99.90
15765;DHT22;7983;50.744;7.086;2022-10-04T22:26:28;14.40;99.90
15765;DHT22;7983;50.744;7.086;2022-10-04T22:28:57;14.40;99.90
15765;DHT22;7983;50.744;7.086;2022-10-04T22:31:28;14.40;99.90
15765;DHT22;7983;50.744;7.086;2022-10-04T22:33:54;14.40;99.90
15765;DHT22;7983;50.744;7.086;2022-10-04T22:36:34;14.30;99.90
15765;DHT22;7983;50.744;7.086;2022-10-04T22:39:16;14.30;99.90
15765;DHT22;7983;50.744;7.086;2022-10-04T22:41:47;14.30;99.90
15765;DHT22;7983;50.744;7.086;2022-10-04T22:44:34;14.30;99.90
15765;DHT22;7983;50.744;7.086;2022-10-04T22:47:02;14.30;99.90
15765;DHT22;7983;50.744;7.086;2022-10-04T22:49:35;14.30;99.90
15765;DHT22;7983;50.744;7.086;2022-10-04T22:52:20;14.30;99.90
15765;DHT22;7983;50.744;7.086;2022-10-04T22:54:51;14.30;99.90
15765;DHT22;7983;50.744;7.086;2022-10-04T22:57:18;14.30;99.90
15765;DHT22;7983;50.744;7.086;2022-10-04T22:59:47;14.30;99.90
15765;DHT22;7983;50.744;7.086;2022-10-04T23:02:28;14.30;99.90
15765;DHT22;7983;50.744;7.086;2022-10-04T23:05:01;14.30;99.90
15765;DHT22;7983;50.744;7.086;2022-10-04T23:07:33;14.20;99.90
15765;DHT22;7983;50.744;7.086;2022-10-04T23:10:01;14.20;99.90
15765;DHT22;7983;50.744;7.086;2022-10-04T23:12:27;14.20;99.90
15765;DHT22;7983;50.744;7.086;2022-10-04T23:14:53;14.20;99.90
15765;DHT22;7983;50.744;7.086;2022-10-04T23:17:24;14.20;99.90
15765;DHT22;7983;50.744;7.086;2022-10-04T23:20:00;14.30;99.90
15765;DHT22;7983;50.744;7.086;2022-10-04T23:22:33;14.30;99.90
15765;DHT22;7983;50.744;7.086;2022-10-04T23:25:01;14.30;99.90
15765;DHT22;7983;50.744;7.086;2022-10-04T23:27:27;14.30;99.90
15765;DHT22;7983;50.744;7.086;2022-10-04T23:30:08;14.30;99.90
15765;DHT22;7983;50.744;7.086;2022-10-04T23:32:35;14.30;99.90
15765;DHT22;7983;50.744;7.086;2022-10-04T23:35:03;14.30;99.90
15765;DHT22;7983;50.744;7.086;2022-10-04T23:37:31;14.30;99.90
15765;DHT22;7983;50.744;7.086;2022-10-04T23:39:57;14.30;99.90
15765;DHT22;7983;50.744;7.086;2022-10-04T23:42:28;14.30;99.90
15765;DHT22;7983;50.744;7.086;2022-10-04T23:44:58;14.30;99.90
15765;DHT22;7983;50.744;7.086;2022-10-04T23:47:29;14.30;99.90
15765;DHT22;7983;50.744;7.086;2022-10-04T23:50:04;14.30;99.90
15765;DHT22;7983;50.744;7.086;2022-10-04T23:52:40;14.30;99.90
15765;DHT22;7983;50.744;7.086;2022-10-04T23:55:28;14.20;99.90
15765;DHT22;7983;50.744;7.086;2022-10-04T23:57:55;14.20;99.90
